createdAt,value
2018-06-04T00:43:37.305Z,0
2018-06-04T00:44:17.682Z,0
2018-06-04T00:44:58.052Z,0
2018-06-04T00:45:38.486Z,0
2018-06-04T00:46:18.903Z,0
2018-06-04T00:46:59.290Z,0
2018-06-04T00:47:39.733Z,0
2018-06-04T00:48:20.159Z,0
2018-06-04T00:49:00.547Z,0
2018-06-04T00:49:40.913Z,0
2018-06-04T00:50:21.305Z,0
2018-06-04T00:51:01.707Z,0
2018-06-04T00:51:42.094Z,0
2018-06-04T00:52:22.539Z,0
2018-06-04T00:53:02.924Z,0
2018-06-04T00:53:43.370Z,0
2018-06-04T00:54:23.764Z,0
2018-06-04T00:55:04.148Z,0
2018-06-04T00:55:44.561Z,0
2018-06-04T00:56:24.978Z,0
2018-06-04T00:57:05.398Z,0
2018-06-04T00:57:45.811Z,0
2018-06-04T00:58:26.203Z,0
2018-06-04T00:59:06.599Z,0
2018-06-04T00:59:47.044Z,0
2018-06-04T01:00:27.436Z,0
2018-06-04T01:01:07.781Z,0
2018-06-04T01:01:48.182Z,0
2018-06-04T01:02:28.587Z,0
2018-06-04T01:03:08.952Z,0
2018-06-04T01:03:49.332Z,0
2018-06-04T01:04:29.738Z,0
2018-06-04T01:05:10.201Z,0
2018-06-04T01:05:50.586Z,0
2018-06-04T01:06:30.978Z,0
2018-06-04T01:07:11.367Z,0
2018-06-04T01:07:51.811Z,0
2018-06-04T01:08:32.216Z,0
2018-06-04T01:09:12.592Z,0
2018-06-04T01:09:52.985Z,0
2018-06-04T01:10:33.428Z,0
2018-06-04T01:11:13.849Z,0
2018-06-04T01:11:54.276Z,0
2018-06-04T01:12:34.713Z,0
2018-06-04T01:13:15.126Z,0
2018-06-04T01:13:55.514Z,0
2018-06-04T01:14:35.927Z,0
2018-06-04T01:15:16.317Z,0
2018-06-04T01:15:56.714Z,0
2018-06-04T01:16:37.137Z,0
2018-06-04T01:17:17.533Z,0
2018-06-04T01:17:57.930Z,0
2018-06-04T01:18:38.352Z,0
2018-06-04T01:19:18.757Z,0
2018-06-04T01:19:59.228Z,0
2018-06-04T01:20:39.603Z,0
2018-06-04T01:21:19.964Z,0
2018-06-04T01:22:00.375Z,0
2018-06-04T01:22:40.768Z,0
2018-06-04T01:23:21.240Z,0
2018-06-04T01:24:01.577Z,0
2018-06-04T01:24:41.969Z,0
2018-06-04T01:25:22.345Z,0
2018-06-04T01:26:02.793Z,0
2018-06-04T01:26:43.148Z,0
2018-06-04T01:27:23.617Z,0
2018-06-04T01:28:04.005Z,0
2018-06-04T01:28:44.403Z,0
2018-06-04T01:29:24.836Z,0
2018-06-04T01:30:05.221Z,0
2018-06-04T01:30:45.621Z,0
2018-06-04T01:31:26.071Z,0
2018-06-04T01:32:06.494Z,0
2018-06-04T01:32:46.870Z,0
2018-06-04T01:33:27.316Z,0
2018-06-04T01:34:07.748Z,0
2018-06-04T01:34:48.109Z,0
2018-06-04T01:35:28.554Z,0
2018-06-04T01:36:08.977Z,0
2018-06-04T01:36:49.380Z,0
2018-06-04T01:37:29.787Z,0
2018-06-04T01:38:10.154Z,0
2018-06-04T01:38:50.601Z,0
2018-06-04T01:39:30.971Z,0
2018-06-04T01:40:11.379Z,0
2018-06-04T01:40:51.817Z,0
2018-06-04T01:41:32.201Z,0
2018-06-04T01:42:12.594Z,0
2018-06-04T01:42:53.014Z,0
2018-06-04T01:43:33.399Z,0
2018-06-04T01:44:13.819Z,0
2018-06-04T01:44:54.230Z,0
2018-06-04T01:45:34.588Z,0
2018-06-04T01:46:15.014Z,0
2018-06-04T01:46:55.379Z,0
2018-06-04T01:47:35.782Z,0
2018-06-04T01:48:16.193Z,0
2018-06-04T01:48:56.619Z,0
2018-06-04T01:49:36.994Z,0
2018-06-04T01:50:17.366Z,0
2018-06-04T01:50:57.813Z,0
2018-06-04T01:51:38.176Z,0
2018-06-04T01:52:18.616Z,0
2018-06-04T01:52:59.043Z,0
2018-06-04T01:53:39.437Z,0
2018-06-04T01:54:19.835Z,0
2018-06-04T01:55:00.251Z,0
2018-06-04T01:55:40.658Z,0
2018-06-04T01:56:21.043Z,0
2018-06-04T01:57:01.470Z,0
2018-06-04T01:57:41.874Z,0
2018-06-04T01:58:22.253Z,0
2018-06-04T01:59:02.700Z,0
2018-06-04T01:59:43.082Z,0
2018-06-04T02:00:23.492Z,0
2018-06-04T02:01:03.846Z,0
2018-06-04T02:01:44.297Z,0
2018-06-04T02:02:24.684Z,0
2018-06-04T02:03:05.078Z,0
2018-06-04T02:03:45.514Z,0
2018-06-04T02:04:25.879Z,0
2018-06-04T02:05:06.306Z,0
2018-06-04T02:05:46.701Z,0
2018-06-04T02:06:27.094Z,0
2018-06-04T02:07:07.525Z,0
2018-06-04T02:07:47.931Z,0
2018-06-04T02:08:28.352Z,0
2018-06-04T02:09:08.724Z,0
2018-06-04T02:09:49.157Z,0
2018-06-04T02:10:29.550Z,0
2018-06-04T02:11:09.942Z,0
2018-06-04T02:11:50.337Z,0
2018-06-04T02:12:30.778Z,0
2018-06-04T02:13:11.189Z,0
2018-06-04T02:13:51.589Z,0
2018-06-04T02:14:32.006Z,0
2018-06-04T02:15:12.419Z,0
2018-06-04T02:15:52.844Z,0
2018-06-04T02:16:33.258Z,0
2018-06-04T02:17:13.656Z,0
2018-06-04T02:17:54.090Z,0
2018-06-04T02:18:34.469Z,0
2018-06-04T02:19:14.844Z,0
2018-06-04T02:19:55.323Z,0
2018-06-04T02:20:35.645Z,0
2018-06-04T02:21:16.093Z,0
2018-06-04T02:21:56.429Z,0
2018-06-04T02:22:36.888Z,0
2018-06-04T02:23:17.280Z,0
2018-06-04T02:23:57.699Z,0
2018-06-04T02:24:38.095Z,0
2018-06-04T02:25:18.515Z,0
2018-06-04T02:25:58.919Z,0
2018-06-04T02:26:39.284Z,0
2018-06-04T02:27:19.746Z,0
2018-06-04T02:28:00.124Z,0
2018-06-04T02:28:40.627Z,0
2018-06-04T02:29:21.040Z,0
2018-06-04T02:30:01.444Z,0
2018-06-04T02:30:41.820Z,0
2018-06-04T02:31:22.218Z,0
2018-06-04T02:32:02.627Z,0
2018-06-04T02:32:43.027Z,0
2018-06-04T02:33:23.461Z,0
2018-06-04T02:34:03.842Z,0
2018-06-04T02:34:44.291Z,0
2018-06-04T02:35:24.650Z,0
2018-06-04T02:36:05.069Z,0
2018-06-04T02:36:45.494Z,0
2018-06-04T02:37:25.888Z,0
2018-06-04T02:38:06.314Z,0
2018-06-04T02:38:46.741Z,0
2018-06-04T02:39:27.131Z,0
2018-06-04T02:40:07.526Z,0
2018-06-04T02:40:47.925Z,0
2018-06-04T02:41:28.342Z,0
2018-06-04T02:42:08.803Z,0
2018-06-04T02:42:49.173Z,0
2018-06-04T02:43:29.595Z,0
2018-06-04T02:44:09.961Z,0
2018-06-04T02:44:50.400Z,0
2018-06-04T02:45:30.756Z,0
2018-06-04T02:46:11.146Z,0
2018-06-04T02:46:51.568Z,0
2018-06-04T02:47:31.948Z,0
2018-06-04T02:48:12.377Z,0
2018-06-04T02:48:52.749Z,0
2018-06-04T02:49:33.178Z,0
2018-06-04T02:50:13.642Z,0
2018-06-04T02:50:53.991Z,0
2018-06-04T02:51:34.378Z,0
2018-06-04T02:52:14.803Z,0
2018-06-04T02:52:55.288Z,0
2018-06-04T02:53:35.668Z,0
2018-06-04T02:54:16.098Z,0
2018-06-04T02:54:56.480Z,0
2018-06-04T02:55:36.897Z,0
2018-06-04T02:56:17.293Z,0
2018-06-04T02:56:57.696Z,0
2018-06-04T02:57:38.103Z,0
2018-06-04T02:58:18.491Z,0
2018-06-04T02:58:58.902Z,0
2018-06-04T02:59:39.311Z,0
2018-06-04T03:00:19.715Z,0
2018-06-04T03:01:00.142Z,0
2018-06-04T03:01:40.526Z,0
2018-06-04T03:02:20.973Z,0
2018-06-04T03:03:01.321Z,0
2018-06-04T03:03:41.733Z,0
2018-06-04T03:04:22.180Z,0
2018-06-04T03:05:02.558Z,0
2018-06-04T03:05:43.012Z,0
2018-06-04T03:06:23.398Z,0
2018-06-04T03:07:03.795Z,0
2018-06-04T03:07:44.192Z,0
2018-06-04T03:08:24.598Z,0
2018-06-04T03:09:05.008Z,0
2018-06-04T03:09:45.424Z,0
2018-06-04T03:10:25.809Z,0
2018-06-04T03:11:06.209Z,0
2018-06-04T03:11:46.580Z,0
2018-06-04T03:12:26.986Z,0
2018-06-04T03:13:07.427Z,0
2018-06-04T03:13:47.807Z,0
2018-06-04T03:14:28.230Z,0
2018-06-04T03:15:08.607Z,0
2018-06-04T03:15:49.016Z,0
2018-06-04T03:16:29.433Z,0
2018-06-04T03:17:09.867Z,0
2018-06-04T03:17:50.242Z,0
2018-06-04T03:18:30.686Z,0
2018-06-04T03:19:11.058Z,0
2018-06-04T03:19:51.450Z,0
2018-06-04T03:20:31.821Z,0
2018-06-04T03:21:12.241Z,0
2018-06-04T03:21:52.690Z,0
2018-06-04T03:22:33.093Z,0
2018-06-04T03:23:13.521Z,0
2018-06-04T03:23:53.916Z,0
2018-06-04T03:24:34.270Z,0
2018-06-04T03:25:14.710Z,0
2018-06-04T03:25:55.100Z,0
2018-06-04T03:26:35.541Z,0
2018-06-04T03:27:15.976Z,0
2018-06-04T03:27:56.396Z,0
2018-06-04T03:28:36.752Z,0
2018-06-04T03:29:17.154Z,0
2018-06-04T03:29:57.575Z,0
2018-06-04T03:30:38.063Z,0
2018-06-04T03:31:18.396Z,0
2018-06-04T03:31:58.807Z,0
2018-06-04T03:32:39.210Z,0
2018-06-04T03:33:19.628Z,0
2018-06-04T03:34:00.033Z,0
2018-06-04T03:34:40.421Z,5
2018-06-04T03:35:20.872Z,5
2018-06-04T03:36:01.248Z,5
2018-06-04T03:36:41.660Z,5
2018-06-04T03:37:22.034Z,5
2018-06-04T03:38:02.455Z,5
2018-06-04T03:38:42.883Z,5
2018-06-04T03:39:23.270Z,5
2018-06-04T03:40:03.626Z,5
2018-06-04T03:40:44.024Z,5
2018-06-04T03:41:24.441Z,5
2018-06-04T03:42:04.847Z,5
2018-06-04T03:42:45.285Z,5
2018-06-04T03:43:25.641Z,5
2018-06-04T03:44:06.063Z,5
2018-06-04T03:44:46.486Z,5
2018-06-04T03:45:26.888Z,5
2018-06-04T03:46:07.273Z,5
2018-06-04T03:46:47.654Z,10
2018-06-04T03:47:28.180Z,10
2018-06-04T03:48:08.547Z,10
2018-06-04T03:48:48.992Z,10
2018-06-04T03:49:29.357Z,10
2018-06-04T03:50:09.784Z,10
2018-06-04T03:50:50.241Z,10
2018-06-04T03:51:30.615Z,10
2018-06-04T03:52:11.006Z,10
2018-06-04T03:52:51.396Z,10
2018-06-04T03:53:31.775Z,10
2018-06-04T03:54:12.237Z,10
2018-06-04T03:54:52.592Z,10
2018-06-04T03:55:32.986Z,15
2018-06-04T03:56:13.435Z,15
2018-06-04T03:56:53.861Z,15
2018-06-04T03:57:34.296Z,15
2018-06-04T03:58:14.694Z,15
2018-06-04T03:58:55.123Z,15
2018-06-04T03:59:35.546Z,15
2018-06-04T04:00:18.703Z,15
2018-06-04T04:00:59.366Z,15
2018-06-04T04:01:39.731Z,15
2018-06-04T04:02:20.221Z,15
2018-06-04T04:42:37.743Z,75
2018-06-04T04:43:18.179Z,80
2018-06-04T04:43:58.549Z,80
2018-06-04T04:44:38.978Z,85
2018-06-04T04:45:19.394Z,85
2018-06-04T04:45:59.796Z,85
2018-06-04T04:46:40.259Z,85
2018-06-04T04:47:20.640Z,85
2018-06-04T04:48:01.044Z,90
2018-06-04T04:48:41.475Z,95
2018-06-04T04:49:21.916Z,95
2018-06-04T04:50:02.275Z,90
2018-06-04T04:50:42.706Z,85
2018-06-04T04:51:23.092Z,80
2018-06-04T04:52:03.537Z,75
2018-06-04T04:52:43.909Z,75
2018-06-04T04:53:24.325Z,75
2018-06-04T04:54:04.795Z,75
2018-06-04T04:54:45.127Z,75
2018-06-04T04:55:25.512Z,80
2018-06-04T04:56:05.968Z,90
2018-06-04T04:56:46.355Z,95
2018-06-04T04:57:26.829Z,95
2018-06-04T04:58:08.763Z,90
2018-06-04T04:58:49.697Z,85
2018-06-04T05:01:19.755Z,80
2018-06-04T05:02:00.347Z,95
2018-06-04T05:02:41.457Z,100
2018-06-04T05:03:23.374Z,95
2018-06-04T05:04:04.098Z,105
2018-06-04T05:04:44.610Z,110
2018-06-04T05:05:24.888Z,110
2018-06-04T05:06:05.886Z,110
2018-06-04T05:06:49.497Z,120
2018-06-04T05:07:28.348Z,130
2018-06-04T05:08:08.737Z,135
2018-06-04T05:08:49.110Z,135
2018-06-04T05:09:29.505Z,140
2018-06-04T05:10:09.895Z,150
2018-06-04T05:10:50.328Z,160
2018-06-04T05:11:30.752Z,165
2018-06-04T05:12:11.164Z,170
2018-06-04T05:12:51.594Z,155
2018-06-04T05:13:32.059Z,130
2018-06-04T05:14:12.421Z,130
2018-06-04T05:14:52.824Z,125
2018-06-04T05:15:33.213Z,125
2018-06-04T05:16:13.635Z,135
2018-06-04T05:16:54.095Z,145
2018-06-04T05:17:34.559Z,150
2018-06-04T05:18:14.923Z,155
2018-06-04T05:18:55.395Z,160
2018-06-04T05:19:35.760Z,165
2018-06-04T05:20:16.246Z,175
2018-06-04T05:20:56.575Z,180
2018-06-04T05:21:37.053Z,185
2018-06-04T05:22:17.486Z,185
2018-06-04T05:22:57.854Z,190
2018-06-04T05:23:38.279Z,200
2018-06-04T05:24:18.682Z,210
2018-06-04T05:24:59.104Z,210
2018-06-04T05:25:39.513Z,210
2018-06-04T05:26:19.878Z,210
2018-06-04T05:27:00.319Z,210
2018-06-04T05:27:40.748Z,215
2018-06-04T05:28:21.181Z,215
2018-06-04T05:29:01.574Z,220
2018-06-04T05:29:42.045Z,215
2018-06-04T05:30:22.401Z,220
2018-06-04T05:31:02.782Z,225
2018-06-04T05:31:43.240Z,230
2018-06-04T05:32:23.551Z,235
2018-06-04T05:33:03.977Z,230
2018-06-04T05:33:44.363Z,235
2018-06-04T05:34:24.793Z,235
2018-06-04T05:35:05.222Z,240
2018-06-04T05:35:45.601Z,240
2018-06-04T05:36:26.064Z,245
2018-06-04T05:37:06.492Z,250
2018-06-04T05:37:46.836Z,255
2018-06-04T05:38:27.254Z,255
2018-06-04T05:39:07.690Z,260
2018-06-04T05:39:48.080Z,260
2018-06-04T05:40:28.545Z,265
2018-06-04T05:41:08.919Z,265
2018-06-04T05:41:49.337Z,265
2018-06-04T05:42:29.748Z,265
2018-06-04T05:43:10.156Z,265
2018-06-04T05:43:50.591Z,265
2018-06-04T05:44:30.959Z,270
2018-06-04T05:45:11.372Z,265
2018-06-04T05:45:51.810Z,270
2018-06-04T05:46:32.312Z,275
2018-06-04T05:47:12.908Z,275
2018-06-04T05:47:53.336Z,280
2018-06-04T05:48:33.808Z,280
2018-06-04T05:49:14.236Z,285
2018-06-04T05:49:54.740Z,285
2018-06-04T05:50:35.126Z,295
2018-06-04T05:51:15.633Z,310
2018-06-04T05:51:55.991Z,305
2018-06-04T05:52:36.399Z,295
2018-06-04T05:53:16.839Z,280
2018-06-04T05:53:57.217Z,290
2018-06-04T05:54:37.646Z,310
2018-06-04T05:55:18.098Z,320
2018-06-04T05:55:58.528Z,325
2018-06-04T05:56:38.968Z,320
2018-06-04T05:57:19.343Z,325
2018-06-04T05:57:59.768Z,330
2018-06-04T05:58:40.187Z,350
2018-06-04T05:59:20.673Z,360
2018-06-04T06:00:01.111Z,370
2018-06-04T06:00:41.485Z,380
2018-06-04T06:01:21.917Z,385
2018-06-04T06:02:02.323Z,385
2018-06-04T06:02:42.814Z,405
2018-06-04T06:03:23.256Z,425
2018-06-04T06:04:03.637Z,450
2018-06-04T06:04:44.070Z,470
2018-06-04T06:05:24.481Z,485
2018-06-04T06:06:04.914Z,500
2018-06-04T06:06:45.318Z,510
2018-06-04T06:07:25.746Z,510
2018-06-04T06:08:06.193Z,505
2018-06-04T06:08:46.595Z,505
2018-06-04T06:09:27.096Z,515
2018-06-04T06:12:02.290Z,535
2018-06-04T06:12:42.726Z,545
2018-06-04T06:13:23.127Z,630
2018-06-04T06:14:03.591Z,850
2018-06-04T06:14:43.987Z,1085
2018-06-04T06:15:24.427Z,1270
2018-06-04T06:16:04.824Z,1310
2018-06-04T06:16:45.236Z,1185
2018-06-04T06:17:25.647Z,1030
2018-06-04T06:18:06.076Z,940
2018-06-04T06:18:46.507Z,930
2018-06-04T06:19:27.140Z,930
2018-06-04T06:20:07.541Z,910
2018-06-04T06:20:48.845Z,925
2018-06-04T06:21:28.735Z,930
2018-06-04T06:22:09.159Z,940
2018-06-04T06:22:49.594Z,540
2018-06-04T06:23:31.323Z,615
2018-06-04T06:24:11.462Z,840
2018-06-04T06:24:52.109Z,805
2018-06-04T06:25:32.550Z,815
2018-06-04T06:26:12.981Z,820
2018-06-04T06:26:53.413Z,875
2018-06-04T06:27:33.874Z,900
2018-06-04T06:28:14.306Z,945
2018-06-04T06:28:54.802Z,1010
2018-06-04T06:29:35.217Z,990
2018-06-04T06:30:15.713Z,1005
2018-06-04T06:31:01.500Z,970
2018-06-04T06:31:42.671Z,1020
2018-06-04T06:32:26.919Z,1075
2018-06-04T06:33:11.126Z,1095
2018-06-04T06:33:51.817Z,1065
2018-06-04T06:34:56.671Z,1045
2018-06-04T06:40:43.108Z,1160
2018-06-04T06:44:59.383Z,1150
2018-06-04T06:47:41.369Z,1225
2018-06-04T06:48:21.524Z,1260
2018-06-04T06:49:02.040Z,1240
2018-06-04T06:49:42.472Z,1185
2018-06-04T06:50:23.258Z,985
2018-06-04T06:51:03.998Z,725
2018-06-04T06:51:44.488Z,605
2018-06-04T06:52:26.111Z,585
2018-06-04T06:53:06.658Z,575
2018-06-04T06:53:47.603Z,585
2018-06-04T06:54:28.915Z,585
2018-06-04T06:55:08.684Z,575
2018-06-04T06:55:49.328Z,530
2018-06-04T06:56:29.738Z,480
2018-06-04T06:57:10.141Z,535
2018-06-04T06:57:50.566Z,495
2018-06-04T07:00:18.827Z,505
2018-06-04T07:00:59.216Z,510
2018-06-04T07:01:39.627Z,520
2018-06-04T07:02:20.126Z,510
2018-06-04T07:03:00.957Z,500
2018-06-04T07:03:41.183Z,500
2018-06-04T07:04:21.874Z,500
2018-06-04T07:05:03.538Z,500
2018-06-04T07:05:43.515Z,525
2018-06-04T07:06:23.856Z,510
2018-06-04T07:07:04.295Z,515
2018-06-04T07:07:44.847Z,495
2018-06-04T07:08:25.376Z,510
2018-06-04T07:09:05.882Z,535
2018-06-04T07:09:47.285Z,550
2018-06-04T07:10:26.986Z,570
2018-06-04T07:11:07.779Z,575
2018-06-04T07:11:48.347Z,580
2018-06-04T07:12:28.914Z,575
2018-06-04T07:13:09.390Z,560
2018-06-04T07:13:49.883Z,555
2018-06-04T07:14:30.550Z,550
2018-06-04T07:15:11.085Z,555
2018-06-04T07:15:51.535Z,570
2018-06-04T07:16:31.937Z,575
2018-06-04T07:17:12.386Z,570
2018-06-04T07:17:52.798Z,555
2018-06-04T07:18:33.221Z,540
2018-06-04T07:19:13.652Z,530
2018-06-04T07:19:54.054Z,525
2018-06-04T07:20:34.509Z,530
2018-06-04T07:21:14.933Z,540
2018-06-04T07:21:55.392Z,560
2018-06-04T07:22:35.767Z,575
2018-06-04T07:23:16.214Z,575
2018-06-04T07:23:56.620Z,555
2018-06-04T07:24:37.052Z,535
2018-06-04T07:25:17.483Z,515
2018-06-04T07:25:57.899Z,475
2018-06-04T07:26:38.429Z,415
2018-06-04T07:27:18.971Z,360
2018-06-04T07:27:59.476Z,330
2018-06-04T07:28:39.855Z,320
2018-06-04T07:29:20.376Z,305
2018-06-04T07:30:00.922Z,295
2018-06-04T07:30:41.382Z,285
2018-06-04T07:31:22.855Z,275
2018-06-04T07:32:02.688Z,265
2018-06-04T07:32:43.203Z,260
2018-06-04T07:33:23.598Z,260
2018-06-04T07:34:04.040Z,255
2018-06-04T07:34:44.442Z,250
2018-06-04T07:35:24.859Z,250
2018-06-04T07:36:05.284Z,240
2018-06-04T07:36:45.726Z,235
2018-06-04T07:37:26.140Z,225
2018-06-04T07:38:06.632Z,215
2018-06-04T07:38:47.130Z,210
2018-06-04T07:39:27.525Z,200
2018-06-04T07:40:07.995Z,210
2018-06-04T07:40:48.374Z,210
2018-06-04T07:41:28.887Z,210
2018-06-04T07:42:09.343Z,205
2018-06-04T07:42:49.799Z,200
2018-06-04T07:43:30.322Z,200
2018-06-04T07:44:10.671Z,200
2018-06-04T07:44:51.106Z,200
2018-06-04T07:45:31.574Z,195
2018-06-04T07:46:12.006Z,195
2018-06-04T07:46:52.458Z,190
2018-06-04T07:47:32.908Z,190
2018-06-04T07:48:13.385Z,190
2018-06-04T07:48:53.873Z,190
2018-06-04T07:49:34.359Z,185
2018-06-04T07:50:14.777Z,185
2018-06-04T07:50:55.217Z,180
2018-06-04T07:51:35.670Z,180
2018-06-04T07:52:16.146Z,175
2018-06-04T07:52:56.489Z,175
2018-06-04T07:53:36.938Z,175
2018-06-04T07:54:17.340Z,175
2018-06-04T07:54:57.774Z,170
2018-06-04T07:55:38.233Z,175
2018-06-04T07:56:18.791Z,165
2018-06-04T07:56:59.126Z,165
2018-06-04T07:57:39.563Z,165
2018-06-04T07:58:19.994Z,165
2018-06-04T07:59:00.402Z,160
2018-06-04T07:59:40.892Z,160
2018-06-04T08:00:21.268Z,160
2018-06-04T08:01:01.755Z,160
2018-06-04T08:01:42.181Z,160
2018-06-04T08:02:22.635Z,155
2018-06-04T08:03:03.094Z,155
2018-06-04T08:03:43.517Z,155
2018-06-04T08:04:23.968Z,155
2018-06-04T08:05:04.408Z,150
2018-06-04T08:05:45.173Z,150
2018-06-04T08:06:25.644Z,150
2018-06-04T08:07:06.036Z,150
2018-06-04T08:07:46.568Z,150
2018-06-04T08:08:27.351Z,150
2018-06-04T08:09:07.829Z,150
2018-06-04T08:09:48.239Z,150
2018-06-04T08:10:28.735Z,145
2018-06-04T08:11:09.238Z,150
2018-06-04T08:11:51.052Z,145
2018-06-04T08:12:31.162Z,145
2018-06-04T08:13:11.277Z,140
2018-06-04T08:13:52.813Z,140
2018-06-04T08:14:33.336Z,140
2018-06-04T08:15:13.187Z,135
2018-06-04T08:15:53.914Z,135
2018-06-04T08:16:35.362Z,135
2018-06-04T08:17:15.900Z,135
2018-06-04T08:17:56.495Z,135
2018-06-04T08:18:37.003Z,135
2018-06-04T08:19:17.258Z,135
2018-06-04T08:19:57.680Z,130
2018-06-04T08:20:38.420Z,130
2018-06-04T08:21:19.044Z,130
2018-06-04T08:22:00.104Z,135
2018-06-04T08:22:40.530Z,135
2018-06-04T08:23:20.988Z,135
2018-06-04T08:24:01.436Z,135
2018-06-04T08:24:42.828Z,135
2018-06-04T08:25:22.331Z,135
2018-06-04T08:26:02.777Z,135
2018-06-04T08:26:43.231Z,130
2018-06-04T08:27:23.724Z,130
2018-06-04T08:28:04.200Z,130
2018-06-04T08:28:44.584Z,130
2018-06-04T08:29:25.052Z,130
2018-06-04T08:30:05.480Z,130
2018-06-04T08:30:45.980Z,125
2018-06-04T08:31:26.429Z,125
2018-06-04T08:32:06.852Z,125
2018-06-04T08:32:47.277Z,125
2018-06-04T08:33:27.713Z,125
2018-06-04T08:34:08.199Z,125
2018-06-04T08:34:48.617Z,125
2018-06-04T08:35:29.098Z,125
2018-06-04T08:36:09.586Z,125
2018-06-04T08:36:50.001Z,125
2018-06-04T08:37:30.475Z,125
2018-06-04T08:38:11.040Z,125
2018-06-04T08:38:51.439Z,125
2018-06-04T08:39:32.868Z,125
2018-06-04T08:40:12.690Z,125
2018-06-04T08:40:53.246Z,125
2018-06-04T08:41:33.704Z,125
2018-06-04T08:42:14.148Z,125
2018-06-04T08:42:54.619Z,125
2018-06-04T08:43:35.029Z,125
2018-06-04T08:44:15.496Z,125
2018-06-04T08:44:55.977Z,125
2018-06-04T08:45:36.559Z,125
2018-06-04T08:46:16.893Z,125
2018-06-04T08:46:57.383Z,125
2018-06-04T08:49:46.307Z,115
2018-06-04T08:50:26.987Z,115
2018-06-04T08:51:07.507Z,115
2018-06-04T08:51:48.114Z,110
2018-06-04T08:52:28.759Z,110
2018-06-04T08:53:09.181Z,110
2018-06-04T08:53:49.605Z,110
2018-06-04T08:54:30.220Z,110
2018-06-04T08:55:10.636Z,110
2018-06-04T08:55:51.080Z,110
2018-06-04T08:56:31.625Z,115
2018-06-04T08:57:12.101Z,115
2018-06-04T08:57:52.577Z,115
2018-06-04T08:58:33.051Z,115
2018-06-04T08:59:13.517Z,115
2018-06-04T08:59:53.995Z,115
2018-06-04T09:00:34.681Z,115
2018-06-04T09:01:15.143Z,115
2018-06-04T09:01:56.487Z,110
2018-06-04T09:02:36.934Z,110
2018-06-04T09:03:18.209Z,110
2018-06-04T09:03:58.813Z,110
2018-06-04T09:04:39.307Z,110
2018-06-04T09:05:19.932Z,110
2018-06-04T09:06:00.609Z,110
2018-06-04T09:06:41.674Z,110
2018-06-04T09:07:22.000Z,110
2018-06-04T09:08:02.629Z,110
2018-06-04T09:08:43.073Z,105
2018-06-04T09:09:24.483Z,110
2018-06-04T09:10:04.095Z,105
2018-06-04T09:10:45.014Z,110
2018-06-04T09:11:25.191Z,105
2018-06-04T09:12:05.651Z,105
2018-06-04T09:12:46.188Z,105
2018-06-04T09:13:26.837Z,105
2018-06-04T09:14:07.288Z,105
2018-06-04T09:14:47.810Z,105
2018-06-04T09:15:28.168Z,105
2018-06-04T09:16:08.749Z,100
2018-06-04T09:16:49.125Z,100
2018-06-04T09:17:32.484Z,100
2018-06-04T09:18:12.948Z,100
2018-06-04T09:18:53.451Z,105
2018-06-04T09:19:33.853Z,105
2018-06-04T09:20:14.562Z,105
2018-06-04T09:20:54.974Z,100
2018-06-04T09:21:35.445Z,100
2018-06-04T09:22:15.852Z,100
2018-06-04T09:22:56.411Z,100
2018-06-04T09:23:36.993Z,100
2018-06-04T09:24:17.476Z,100
2018-06-04T09:24:57.940Z,100
2018-06-04T09:25:38.468Z,100
2018-06-04T09:26:18.934Z,100
2018-06-04T09:26:59.569Z,100
2018-06-04T09:27:39.998Z,100
2018-06-04T09:28:20.641Z,100
2018-06-04T09:29:01.224Z,100
2018-06-04T09:29:41.780Z,95
2018-06-04T09:30:23.182Z,95
2018-06-04T09:31:02.956Z,95
2018-06-04T09:31:43.494Z,95
2018-06-04T09:32:23.908Z,95
2018-06-04T09:33:04.310Z,100
2018-06-04T09:33:44.867Z,100
2018-06-04T09:34:25.264Z,100
2018-06-04T09:35:05.825Z,100
2018-06-04T09:35:46.247Z,95
2018-06-04T09:36:26.656Z,95
2018-06-04T09:37:07.066Z,95
2018-06-04T09:37:47.619Z,95
2018-06-04T09:38:28.074Z,95
2018-06-04T09:39:08.513Z,95
2018-06-04T09:39:49.032Z,95
2018-06-04T09:40:29.481Z,95
2018-06-04T09:41:10.081Z,90
2018-06-04T09:41:50.527Z,90
2018-06-04T09:42:30.980Z,90
2018-06-04T09:43:11.473Z,90
2018-06-04T09:43:51.880Z,90
2018-06-04T09:44:32.342Z,90
2018-06-04T09:45:12.715Z,90
2018-06-04T09:45:53.126Z,85
2018-06-04T09:46:33.616Z,90
2018-06-04T09:47:14.009Z,90
2018-06-04T09:47:54.491Z,90
2018-06-04T09:50:12.869Z,90
2018-06-04T09:50:53.325Z,85
2018-06-04T09:51:33.719Z,85
2018-06-04T09:52:14.184Z,90
2018-06-04T09:52:54.517Z,90
2018-06-04T09:53:34.978Z,80
2018-06-04T09:54:15.340Z,80
2018-06-04T09:54:55.943Z,80
2018-06-04T09:55:37.163Z,80
2018-06-04T09:56:17.306Z,85
2018-06-04T09:56:57.790Z,85
2018-06-04T09:57:38.246Z,85
2018-06-04T09:58:18.758Z,80
2018-06-04T09:58:59.233Z,80
2018-06-04T09:59:40.028Z,75
2018-06-04T10:00:21.309Z,80
2018-06-04T10:01:01.451Z,85
2018-06-04T10:01:42.024Z,85
2018-06-04T10:02:23.175Z,85
2018-06-04T10:03:04.658Z,85
2018-06-04T10:03:45.320Z,85
2018-06-04T10:43:15.710Z,80
2018-06-04T10:43:56.481Z,85
2018-06-04T10:44:37.122Z,85
2018-06-04T10:49:17.271Z,80
2018-06-04T10:49:59.477Z,80
2018-06-04T10:54:24.288Z,70
2018-06-04T10:55:05.110Z,75
2018-06-04T10:55:45.958Z,70
2018-06-04T10:56:26.801Z,75
2018-06-04T10:57:08.553Z,80
2018-06-04T10:57:49.761Z,80
2018-06-04T10:58:29.710Z,85
2018-06-04T10:59:10.389Z,80
2018-06-04T10:59:51.155Z,80
2018-06-04T11:00:31.976Z,80
2018-06-04T11:01:13.154Z,80
2018-06-04T11:01:54.121Z,80
2018-06-04T11:02:34.972Z,80
2018-06-04T11:03:16.586Z,80
2018-06-04T11:03:57.561Z,80
2018-06-04T11:04:37.494Z,80
2018-06-04T11:05:19.616Z,80
2018-06-04T11:06:00.849Z,80
2018-06-04T11:06:40.621Z,80
2018-06-04T11:07:22.600Z,80
2018-06-04T11:08:03.843Z,80
2018-06-04T11:08:44.074Z,80
2018-06-04T11:09:25.118Z,80
2018-06-04T11:10:06.296Z,70
2018-06-04T11:10:46.762Z,60
2018-06-04T11:11:27.251Z,80
2018-06-04T11:12:08.248Z,75
2018-06-04T11:12:48.830Z,75
2018-06-04T11:13:29.317Z,80
2018-06-04T11:14:10.578Z,75
2018-06-04T11:14:50.656Z,55
2018-06-04T11:15:30.891Z,55
2018-06-04T11:16:11.491Z,55
2018-06-04T11:16:52.086Z,55
2018-06-04T11:17:32.517Z,55
2018-06-04T11:18:12.963Z,55
2018-06-04T11:18:53.691Z,80
2018-06-04T11:19:33.891Z,85
2018-06-04T11:20:15.006Z,85
2018-06-04T11:22:38.068Z,85
2018-06-04T11:23:18.691Z,85
2018-06-04T11:23:59.284Z,85
2018-06-04T11:24:39.871Z,85
2018-06-04T11:25:20.319Z,85
2018-06-04T11:26:00.848Z,85
2018-06-04T11:26:41.270Z,85
2018-06-04T11:27:21.773Z,60
2018-06-04T11:29:36.052Z,65
2018-06-04T11:30:16.303Z,65
2018-06-04T11:30:56.778Z,55
2018-06-04T11:31:37.294Z,70
2018-06-04T11:32:17.997Z,75
2018-06-04T11:35:50.394Z,80
2018-06-04T11:36:30.860Z,80
2018-06-04T11:37:11.336Z,80
2018-06-04T11:37:51.702Z,80
2018-06-04T11:38:32.168Z,70
2018-06-04T11:39:12.635Z,75
2018-06-04T11:39:53.102Z,60
2018-06-04T11:40:33.476Z,55
2018-06-04T11:41:14.204Z,55
2018-06-04T11:41:54.655Z,55
2018-06-04T11:42:35.090Z,75
2018-06-04T11:43:15.625Z,75
2018-06-04T11:43:56.940Z,80
2018-06-04T11:44:38.411Z,80
2018-06-04T11:45:18.999Z,80
2018-06-04T11:46:00.446Z,85
2018-06-04T11:46:40.451Z,85
2018-06-04T11:47:20.992Z,85
2018-06-04T11:48:02.232Z,85
2018-06-04T11:48:42.931Z,85
2018-06-04T11:49:22.864Z,85
2018-06-04T11:50:03.182Z,85
2018-06-04T11:50:43.605Z,85
2018-06-04T11:51:24.053Z,85
2018-06-04T11:52:04.686Z,85
2018-06-04T11:52:45.202Z,85
2018-06-04T11:53:26.364Z,85
2018-06-04T11:54:06.687Z,85
2018-06-04T11:54:47.112Z,85
2018-06-04T11:55:27.635Z,80
2018-06-04T11:56:08.369Z,80
2018-06-04T11:56:48.780Z,85
2018-06-04T11:57:29.157Z,80
2018-06-04T11:58:09.638Z,80
2018-06-04T11:58:51.635Z,50
2018-06-04T11:59:32.171Z,75
2018-06-04T12:00:13.366Z,80
2018-06-04T12:00:53.857Z,55
2018-06-04T12:01:34.331Z,50
2018-06-04T12:02:14.767Z,50
2018-06-04T12:02:55.187Z,55
2018-06-04T12:03:36.300Z,60
2018-06-04T12:04:16.766Z,65
2018-06-04T12:04:57.248Z,45
2018-06-04T12:05:37.750Z,50
2018-06-04T12:06:18.185Z,45
2018-06-04T12:06:58.689Z,45
2018-06-04T12:07:39.268Z,45
2018-06-04T12:08:21.496Z,45
2018-06-04T12:09:02.945Z,45
2018-06-04T12:09:43.414Z,45
2018-06-04T12:10:23.754Z,50
2018-06-04T12:11:04.279Z,75